Hovedside
METAR-TAF:

METAR-TAF

Lufthavner :

Nouakchott internasjonale lufthavn

Nouakchott, Mauritania

breddegrad: 18-18-36N, lengdegrad: 015-58-11W, høyde over havet: 3 m

Gjeldene værobservasjon

Denne rapporten ble laget for 20 minutter siden, klokken 17:30 UTC
Vind 16 kt fra Vest-sørvest
Temperatur 28°C
Luftfuktighet 62%
Trykk 1009 hPa
Sikt: 8000 m

METAR: GQNO 231730Z 24016KT 8000 NSC 28/20 Q1009 NOSIG

Tid: 17:50 (17:50 UTC)

Varsel

Denne rapporten ble laget for 6 timer og 50 minutter siden, klokken 11:00 UTC
Varsel gyldig fra 23. klokken 12 UTC til 24. klokken 18 UTC
Vind 10 kt fra Nordøst
Sikt: 6000 m
Midlertidig
fra 23. klokken 12 UTC til 23. klokken 16 UTC
Sikt: 4000 m
støvdrev
Blir
fra 23. klokken 14 UTC til 23. klokken 17 UTC
Vind 12 kt fra Nordvest

TAF: GQNO 231100Z 2312/2418 05010KT 6000 NSC TEMPO 2312/2316 4000 BLDU BECMG 2314/2317 32012KT

Værobservasjoner og værvarsel for over 4000 flyplasser (METAR- og TAF-rapporter).

Tilgjengelige stasjoner er representert av de røde og gule prikkene på kartet.

Hold musepekeren over prikken for å se navnet på stasjonen.

Klikk så for å se værobservasjoner og -varsler.

For å forandre kartet kan du klikke på den grønne knappen med svart kryss for å zoome inn, på den grønne knappen med strek for å zoome ut, eller på de grønne pilene for å se tilstøtende kart.


METAR-TAF: